RYR8958 EGNX-LEGE
Flight info
| Callsign | RYR8958 |
|---|---|
| Flight time | N/A |
| Altitude | 35000 |
| Route | SAPCO1N SAPCO Y53 DTY UM605 SILVA Q41 COWLY UT71 VAPID UN859 SOPIL DCT BALAN DCT EVPOK DCT NARAK DCT GAI DCT PPG A27 KANIG KANIG1D |
| Aircraft | B738/M-SDE2E3FGHIRWXY/LB1 |
Departure
| Time | N/A |
|---|---|
| Airport | East Midlands Airport (EGNX) |
Arrival
| Time | 2026-05-03 21:05 |
|---|---|
| Airport | Girona-Costa Brava Airport (LEGE) |
| Time | Latitude | Longitude | Altitude | Speed | Heading |
|---|---|---|---|---|---|
| 2026-05-03 20:15 | 46.89546 | 1.29119 | 34952 ft | 411 kts | 171° |
| 2026-05-03 20:15 | 46.83143 | 1.31740 | 34958 ft | 411 kts | 171° |
| 2026-05-03 20:16 | 46.78532 | 1.33624 | 34959 ft | 411 kts | 171° |
| 2026-05-03 20:16 | 46.73017 | 1.35873 | 34956 ft | 411 kts | 171° |
| 2026-05-03 20:17 | 46.67542 | 1.38101 | 34959 ft | 411 kts | 171° |
| 2026-05-03 20:17 | 46.61994 | 1.40353 | 34959 ft | 411 kts | 171° |
| 2026-05-03 20:18 | 46.56484 | 1.42586 | 34957 ft | 411 kts | 171° |
| 2026-05-03 20:18 | 46.51004 | 1.44802 | 34956 ft | 411 kts | 171° |
| 2026-05-03 20:19 | 46.45495 | 1.47024 | 34966 ft | 411 kts | 171° |
| 2026-05-03 20:19 | 46.39985 | 1.49243 | 34976 ft | 411 kts | 171° |
| 2026-05-03 20:20 | 46.34472 | 1.51458 | 34966 ft | 411 kts | 171° |
| 2026-05-03 20:20 | 46.28959 | 1.53668 | 34975 ft | 411 kts | 171° |
| 2026-05-03 20:21 | 46.23447 | 1.55874 | 34976 ft | 411 kts | 171° |
| 2026-05-03 20:21 | 46.17971 | 1.58060 | 34979 ft | 411 kts | 171° |
| 2026-05-03 20:22 | 46.12453 | 1.60257 | 34975 ft | 414 kts | 170° |
| 2026-05-03 20:22 | 46.06841 | 1.62484 | 34995 ft | 422 kts | 170° |
| 2026-05-03 20:23 | 46.01182 | 1.64730 | 34989 ft | 423 kts | 170° |
| 2026-05-03 20:23 | 45.95509 | 1.66979 | 34982 ft | 423 kts | 170° |
| 2026-05-03 20:24 | 45.89833 | 1.69223 | 34990 ft | 423 kts | 170° |
| 2026-05-03 20:24 | 45.84165 | 1.71459 | 34994 ft | 422 kts | 170° |
| 2026-05-03 20:25 | 45.78501 | 1.73688 | 34995 ft | 421 kts | 170° |
| 2026-05-03 20:25 | 45.72857 | 1.75904 | 34999 ft | 420 kts | 170° |
| 2026-05-03 20:26 | 45.67237 | 1.78106 | 35005 ft | 418 kts | 170° |
| 2026-05-03 20:26 | 45.61627 | 1.80300 | 35009 ft | 417 kts | 170° |
| 2026-05-03 20:27 | 45.56031 | 1.82482 | 34992 ft | 417 kts | 170° |
| 2026-05-03 20:27 | 45.50504 | 1.84633 | 35003 ft | 417 kts | 170° |
| 2026-05-03 20:28 | 45.44948 | 1.86793 | 35009 ft | 416 kts | 170° |
| 2026-05-03 20:28 | 45.39351 | 1.88962 | 35002 ft | 417 kts | 170° |
| 2026-05-03 20:29 | 45.33763 | 1.91124 | 35004 ft | 417 kts | 170° |
| 2026-05-03 20:29 | 45.28156 | 1.93290 | 34991 ft | 417 kts | 171° |
| 2026-05-03 20:30 | 45.22546 | 1.95452 | 35004 ft | 418 kts | 171° |
| 2026-05-03 20:30 | 45.16931 | 1.97611 | 34996 ft | 418 kts | 171° |
| 2026-05-03 20:31 | 45.11312 | 1.99768 | 35011 ft | 419 kts | 171° |
| 2026-05-03 20:31 | 45.05681 | 2.01924 | 35019 ft | 420 kts | 171° |
| 2026-05-03 20:32 | 45.00027 | 2.04085 | 35014 ft | 421 kts | 171° |
| 2026-05-03 20:32 | 44.94375 | 2.06241 | 35021 ft | 421 kts | 171° |
| 2026-05-03 20:33 | 44.88711 | 2.08398 | 35023 ft | 421 kts | 171° |
| 2026-05-03 20:33 | 44.83041 | 2.10552 | 35020 ft | 422 kts | 171° |
| 2026-05-03 20:34 | 44.77375 | 2.12700 | 35005 ft | 422 kts | 171° |
| 2026-05-03 20:34 | 44.71703 | 2.14847 | 35005 ft | 422 kts | 171° |
| 2026-05-03 20:35 | 44.66051 | 2.16982 | 35009 ft | 420 kts | 171° |
| 2026-05-03 20:35 | 44.60413 | 2.19107 | 35017 ft | 419 kts | 171° |
| 2026-05-03 20:36 | 44.54826 | 2.21207 | 35008 ft | 418 kts | 171° |
| 2026-05-03 20:36 | 44.49282 | 2.23287 | 35001 ft | 421 kts | 171° |
| 2026-05-03 20:37 | 44.43615 | 2.25408 | 35019 ft | 423 kts | 171° |
| 2026-05-03 20:37 | 44.37913 | 2.27539 | 34998 ft | 425 kts | 170° |
| 2026-05-03 20:38 | 44.32196 | 2.29673 | 34998 ft | 425 kts | 170° |
| 2026-05-03 20:38 | 44.29331 | 2.30740 | 34753 ft | 427 kts | 170° |
| 2026-05-03 20:38 | 44.26465 | 2.31807 | 34433 ft | 426 kts | 170° |
| 2026-05-03 20:38 | 44.23610 | 2.32871 | 34075 ft | 422 kts | 170° |
| 2026-05-03 20:39 | 44.20773 | 2.33927 | 33683 ft | 420 kts | 170° |
| 2026-05-03 20:39 | 44.17947 | 2.34975 | 33256 ft | 421 kts | 170° |
| 2026-05-03 20:39 | 44.15118 | 2.36022 | 32862 ft | 421 kts | 170° |
| 2026-05-03 20:39 | 44.12283 | 2.37071 | 32465 ft | 422 kts | 170° |
| 2026-05-03 20:40 | 44.09432 | 2.38124 | 32084 ft | 426 kts | 170° |
| 2026-05-03 20:40 | 44.06550 | 2.39185 | 31708 ft | 431 kts | 170° |
| 2026-05-03 20:40 | 44.03645 | 2.40257 | 31319 ft | 431 kts | 170° |
| 2026-05-03 20:40 | 44.00785 | 2.41313 | 30953 ft | 431 kts | 170° |
| 2026-05-03 20:41 | 43.97886 | 2.42384 | 30571 ft | 432 kts | 169° |
| 2026-05-03 20:41 | 43.94978 | 2.43455 | 30210 ft | 432 kts | 169° |
| 2026-05-03 20:41 | 43.92078 | 2.44522 | 29827 ft | 432 kts | 169° |
| 2026-05-03 20:41 | 43.89169 | 2.45590 | 29400 ft | 433 kts | 168° |
| 2026-05-03 20:42 | 43.86252 | 2.46661 | 28989 ft | 434 kts | 168° |
| 2026-05-03 20:42 | 43.83332 | 2.47730 | 28579 ft | 435 kts | 168° |
| 2026-05-03 20:42 | 43.80391 | 2.48807 | 28181 ft | 437 kts | 168° |
| 2026-05-03 20:42 | 43.77440 | 2.49886 | 27784 ft | 438 kts | 168° |
| 2026-05-03 20:43 | 43.74599 | 2.50924 | 27404 ft | 440 kts | 168° |
| 2026-05-03 20:43 | 43.71632 | 2.52007 | 27024 ft | 441 kts | 168° |
| 2026-05-03 20:43 | 43.68658 | 2.53092 | 26644 ft | 443 kts | 168° |
| 2026-05-03 20:43 | 43.65676 | 2.54179 | 26277 ft | 445 kts | 168° |
| 2026-05-03 20:44 | 43.62670 | 2.55273 | 25913 ft | 447 kts | 169° |
| 2026-05-03 20:44 | 43.59652 | 2.56370 | 25533 ft | 448 kts | 169° |
| 2026-05-03 20:44 | 43.56658 | 2.57458 | 25157 ft | 441 kts | 169° |
| 2026-05-03 20:44 | 43.53724 | 2.58528 | 24795 ft | 432 kts | 169° |
| 2026-05-03 20:45 | 43.50816 | 2.59583 | 24454 ft | 434 kts | 168° |
| 2026-05-03 20:45 | 43.47893 | 2.60642 | 24129 ft | 435 kts | 169° |
| 2026-05-03 20:45 | 43.44962 | 2.61700 | 23768 ft | 437 kts | 168° |
| 2026-05-03 20:45 | 43.42035 | 2.62757 | 23410 ft | 432 kts | 168° |
| 2026-05-03 20:46 | 43.39179 | 2.63790 | 23015 ft | 426 kts | 169° |
| 2026-05-03 20:46 | 43.36319 | 2.64822 | 22596 ft | 425 kts | 168° |
| 2026-05-03 20:46 | 43.33460 | 2.65852 | 22195 ft | 423 kts | 168° |
| 2026-05-03 20:46 | 43.30614 | 2.66875 | 21812 ft | 422 kts | 168° |
| 2026-05-03 20:47 | 43.27779 | 2.67894 | 21416 ft | 421 kts | 168° |
| 2026-05-03 20:47 | 43.24946 | 2.68912 | 21037 ft | 419 kts | 168° |
| 2026-05-03 20:47 | 43.22166 | 2.69909 | 20665 ft | 417 kts | 168° |
| 2026-05-03 20:47 | 43.19416 | 2.70895 | 20295 ft | 415 kts | 169° |
| 2026-05-03 20:48 | 43.16630 | 2.71894 | 19928 ft | 413 kts | 168° |
| 2026-05-03 20:48 | 43.13850 | 2.72889 | 19567 ft | 411 kts | 168° |
| 2026-05-03 20:48 | 43.11096 | 2.73874 | 19211 ft | 409 kts | 168° |
| 2026-05-03 20:48 | 43.08353 | 2.74854 | 18869 ft | 406 kts | 168° |
| 2026-05-03 20:49 | 43.05627 | 2.75828 | 18510 ft | 404 kts | 168° |
| 2026-05-03 20:49 | 43.02902 | 2.76799 | 18050 ft | 403 kts | 168° |
| 2026-05-03 20:49 | 43.00193 | 2.77763 | 17583 ft | 402 kts | 168° |
| 2026-05-03 20:49 | 42.97495 | 2.78724 | 17106 ft | 400 kts | 168° |
| 2026-05-03 20:50 | 42.94805 | 2.79681 | 16644 ft | 399 kts | 168° |
| 2026-05-03 20:50 | 42.92135 | 2.80630 | 16188 ft | 394 kts | 168° |
| 2026-05-03 20:50 | 42.89497 | 2.81568 | 15738 ft | 390 kts | 168° |
| 2026-05-03 20:50 | 42.86874 | 2.82498 | 15299 ft | 388 kts | 168° |
| 2026-05-03 20:51 | 42.84351 | 2.83392 | 14864 ft | 387 kts | 168° |
| 2026-05-03 20:51 | 42.81737 | 2.84317 | 14445 ft | 386 kts | 168° |
| 2026-05-03 20:51 | 42.79214 | 2.85210 | 14044 ft | 384 kts | 168° |
| 2026-05-03 20:51 | 42.76763 | 2.86076 | 13611 ft | 383 kts | 168° |
| 2026-05-03 20:52 | 42.74194 | 2.87002 | 13139 ft | 379 kts | 166° |
| 2026-05-03 20:52 | 42.71709 | 2.88028 | 12660 ft | 367 kts | 165° |
| 2026-05-03 20:52 | 42.69322 | 2.89077 | 12195 ft | 354 kts | 164° |
| 2026-05-03 20:52 | 42.67104 | 2.90061 | 11752 ft | 343 kts | 164° |
| 2026-05-03 20:53 | 42.64868 | 2.91045 | 11307 ft | 332 kts | 164° |
| 2026-05-03 20:53 | 42.62754 | 2.91966 | 10879 ft | 323 kts | 165° |
| 2026-05-03 20:53 | 42.60645 | 2.92879 | 10443 ft | 315 kts | 165° |
| 2026-05-03 20:53 | 42.58575 | 2.93769 | 10037 ft | 307 kts | 165° |
| 2026-05-03 20:54 | 42.56574 | 2.94630 | 9720 ft | 297 kts | 166° |
| 2026-05-03 20:54 | 42.52768 | 2.96262 | 9081 ft | 278 kts | 166° |
| 2026-05-03 20:54 | 42.50946 | 2.97040 | 8790 ft | 271 kts | 166° |
| 2026-05-03 20:55 | 42.49153 | 2.97779 | 8450 ft | 268 kts | 172° |
| 2026-05-03 20:55 | 42.47388 | 2.97998 | 8182 ft | 264 kts | 184° |
| 2026-05-03 20:55 | 42.45581 | 2.97601 | 7874 ft | 264 kts | 196° |
| 2026-05-03 20:55 | 42.43824 | 2.96897 | 7578 ft | 263 kts | 198° |
| 2026-05-03 20:56 | 42.42071 | 2.96150 | 7278 ft | 264 kts | 197° |
| 2026-05-03 20:56 | 42.40319 | 2.95416 | 6990 ft | 262 kts | 197° |
| 2026-05-03 20:56 | 42.38661 | 2.94737 | 6837 ft | 257 kts | 196° |
| 2026-05-03 20:56 | 42.37016 | 2.94078 | 6665 ft | 254 kts | 196° |
| 2026-05-03 20:57 | 42.35328 | 2.93410 | 6486 ft | 254 kts | 196° |
| 2026-05-03 20:57 | 42.33617 | 2.92739 | 6325 ft | 256 kts | 196° |
| 2026-05-03 20:57 | 42.31916 | 2.92078 | 6139 ft | 259 kts | 196° |
| 2026-05-03 20:57 | 42.30184 | 2.91407 | 6024 ft | 259 kts | 195° |
| 2026-05-03 20:58 | 42.28448 | 2.90737 | 5906 ft | 260 kts | 196° |
| 2026-05-03 20:58 | 42.26701 | 2.90064 | 5746 ft | 262 kts | 196° |
| 2026-05-03 20:58 | 42.24930 | 2.89381 | 5561 ft | 259 kts | 196° |
| 2026-05-03 20:58 | 42.23233 | 2.88729 | 5380 ft | 254 kts | 196° |
| 2026-05-03 20:59 | 42.21550 | 2.88082 | 5195 ft | 249 kts | 196° |
| 2026-05-03 20:59 | 42.19894 | 2.87446 | 5024 ft | 246 kts | 196° |
| 2026-05-03 20:59 | 42.18257 | 2.86817 | 4848 ft | 244 kts | 196° |
| 2026-05-03 20:59 | 42.16629 | 2.86179 | 4673 ft | 243 kts | 196° |
| 2026-05-03 21:00 | 42.15011 | 2.85533 | 4475 ft | 243 kts | 196° |
| 2026-05-03 21:00 | 42.14462 | 2.85315 | 4416 ft | 242 kts | 196° |
| 2026-05-03 21:00 | 42.11889 | 2.84322 | 4168 ft | 227 kts | 195° |
| 2026-05-03 21:00 | 42.10491 | 2.83792 | 4000 ft | 217 kts | 195° |
| 2026-05-03 21:01 | 42.09078 | 2.83257 | 3822 ft | 206 kts | 195° |
| 2026-05-03 21:01 | 42.07735 | 2.82748 | 3703 ft | 192 kts | 195° |
| 2026-05-03 21:01 | 42.06477 | 2.82271 | 3512 ft | 186 kts | 195° |
| 2026-05-03 21:01 | 42.05246 | 2.81804 | 3283 ft | 182 kts | 195° |
| 2026-05-03 21:02 | 42.04045 | 2.81349 | 3058 ft | 176 kts | 195° |
| 2026-05-03 21:02 | 42.02906 | 2.80916 | 2846 ft | 165 kts | 194° |
| 2026-05-03 21:02 | 42.02182 | 2.80642 | 2707 ft | 161 kts | 194° |
| 2026-05-03 21:02 | 42.00749 | 2.80099 | 2450 ft | 156 kts | 194° |
| 2026-05-03 21:03 | 42.00067 | 2.79840 | 2297 ft | 151 kts | 194° |
| 2026-05-03 21:03 | 41.99065 | 2.79458 | 2087 ft | 148 kts | 194° |
| 2026-05-03 21:03 | 41.98081 | 2.79087 | 1886 ft | 146 kts | 194° |
| 2026-05-03 21:03 | 41.97100 | 2.78707 | 1636 ft | 148 kts | 196° |
| 2026-05-03 21:04 | 41.96120 | 2.78316 | 1462 ft | 146 kts | 194° |
| 2026-05-03 21:04 | 41.94813 | 2.77857 | 1186 ft | 148 kts | 195° |
| 2026-05-03 21:04 | 41.93803 | 2.77474 | 1019 ft | 153 kts | 195° |
| 2026-05-03 21:04 | 41.93111 | 2.77206 | 884 ft | 154 kts | 196° |
| 2026-05-03 21:05 | 41.92081 | 2.76809 | 635 ft | 152 kts | 195° |
| 2026-05-03 21:05 | 41.91087 | 2.76431 | 476 ft | 142 kts | 195° |
| 2026-05-03 21:05 | 41.90077 | 2.76053 | 432 ft | 75 kts | 195° |
| 2026-05-03 21:05 | 41.89835 | 2.75961 | 424 ft | 37 kts | 196° |
| 2026-05-03 21:06 | 41.89612 | 2.75875 | 412 ft | 26 kts | 195° |
| 2026-05-03 21:06 | 41.89522 | 2.75914 | 410 ft | 15 kts | 95° |
| 2026-05-03 21:06 | 41.89563 | 2.76038 | 407 ft | 15 kts | 60° |
| 2026-05-03 21:06 | 41.89639 | 2.76116 | 406 ft | 14 kts | 17° |
| 2026-05-03 21:07 | 41.89731 | 2.76149 | 418 ft | 13 kts | 15° |
| 2026-05-03 21:07 | 41.89818 | 2.76183 | 414 ft | 13 kts | 18° |
| 2026-05-03 21:07 | 41.89890 | 2.76212 | 426 ft | 6 kts | 18° |
| 2026-05-03 21:07 | 41.89912 | 2.76264 | 425 ft | 9 kts | 89° |
| 2026-05-03 21:08 | 41.89887 | 2.76372 | 419 ft | 15 kts | 94° |
| 2026-05-03 21:08 | 41.89900 | 2.76470 | 416 ft | 6 kts | 96° |
| 2026-05-03 21:08 | 41.89895 | 2.76495 | 416 ft | 0 kts | 105° |